Flight Track Log - Related Links

Times and Time Zones

All times are in EDT time to prevent confusion due to time zone crossing. See the TAM3782 flight status page for this flight to view local times or setup timezone preferences in your user account.

Time Position Orientation Groundspeed Altitude Reporting Facility
EDT Latitude Longitude Course Direction KTS MPH feet Rate Location/Type
Thu 10:07:43 PM -15.7840 -47.6550 117° Southeast 374 430 14,600  Level FlightAware
Thu 10:08:23 PM -15.7390 -47.5930 53° Northeast 390 449 15,600 1,500 Climbing FlightAware
Thu 10:09:03 PM -15.6980 -47.5370 53° Northeast 399 459 16,600 1,516 Climbing FlightAware
Thu 10:09:58 PM -15.6340 -47.4510 52° Northeast 411 473 18,000 1,560 Climbing FlightAware
Thu 10:10:43 PM -15.5770 -47.3740 52° Northeast 420 483 19,200 1,624 Climbing FlightAware
Thu 10:11:23 PM -15.5320 -47.3080 55° Northeast 424 488 20,300 1,350 Climbing FlightAware
Thu 10:12:03 PM -15.4890 -47.2400 57° Northeast 433 498 21,000 1,200 Climbing FlightAware
Thu 10:12:48 PM -15.4390 -47.1600 57° Northeast 438 504 22,000 1,271 Climbing FlightAware
Thu 10:13:28 PM -15.3930 -47.0870 57° Northeast 442 509 22,800 884 Climbing FlightAware
Thu 10:14:23 PM -15.3340 -46.9960 56° Northeast 448 516 23,400 379 Climbing FlightAware
Thu 10:15:03 PM -15.2950 -46.9350 56° Northeast 448 516 23,400  Level FlightAware
Thu 10:15:53 PM -15.2450 -46.8600 55° Northeast 448 516 23,400  Level FlightAware
Thu 10:16:33 PM -15.2060 -46.7990 56° Northeast 448 516 23,400  Level FlightAware
Thu 10:17:13 PM -15.1670 -46.7390 56° Northeast 448 516 23,400  Level FlightAware
Thu 10:17:53 PM -15.1270 -46.6780 56° Northeast 448 516 23,400 -121 Level FlightAware
Thu 10:20:00 PM -14.9950 -46.4715 57° Northeast  Level Estimated
Thu 10:21:00 PM -14.9325 -46.3741 56° Northeast  Level Estimated
Thu 10:22:00 PM -14.8701 -46.2766 56° Northeast  Level Estimated
Thu 10:23:00 PM -14.8075 -46.1793 56° Northeast  Level Estimated
Thu 10:24:00 PM -14.7450 -46.0820 56° Northeast  Level Estimated
Thu 10:25:00 PM -14.6824 -45.9847 56° Northeast  Level Estimated
Thu 10:26:00 PM -14.6197 -45.8876 56° Northeast  Level Estimated
Thu 10:27:00 PM -14.5570 -45.7904 56° Northeast  Level Estimated
Thu 10:28:00 PM -14.4943 -45.6934 56° Northeast  Level Estimated
Thu 10:29:00 PM -14.4316 -45.5964 56° Northeast  Level Estimated
Thu 10:30:00 PM -14.3688 -45.4994 56° Northeast  Level Estimated
Thu 10:31:00 PM -14.3059 -45.4025 56° Northeast  Level Estimated
Thu 10:32:00 PM -14.2430 -45.3056 56° Northeast  Level Estimated
Thu 10:33:00 PM -14.1801 -45.2088 56° Northeast  Level Estimated
Thu 10:34:00 PM -14.1172 -45.1121 56° Northeast  Level Estimated
Thu 10:35:00 PM -14.0542 -45.0154 56° Northeast  Level Estimated
Thu 10:36:00 PM -13.9911 -44.9187 56° Northeast  Level Estimated
Thu 10:37:00 PM -13.9281 -44.8222 56° Northeast  Level Estimated
Thu 10:38:00 PM -13.8650 -44.7256 56° Northeast  Level Estimated
Thu 10:39:00 PM -13.8018 -44.6291 56° Northeast  Level Estimated
Thu 10:40:00 PM -13.7386 -44.5327 56° Northeast  Level Estimated
Thu 10:41:00 PM -13.6754 -44.4363 56° Northeast  Level Estimated
Thu 10:42:00 PM -13.6121 -44.3400 56° Northeast  Level Estimated
Thu 10:43:00 PM -13.5488 -44.2437 56° Northeast  Level Estimated
Thu 10:44:00 PM -13.4855 -44.1475 56° Northeast  Level Estimated
Thu 10:45:00 PM -13.4221 -44.0513 56° Northeast  Level Estimated
Thu 10:46:00 PM -13.3587 -43.9552 56° Northeast  Level Estimated
Thu 10:47:00 PM -13.2952 -43.8591 56° Northeast  Level Estimated
Thu 10:48:00 PM -13.2318 -43.7631 56° Northeast  Level Estimated
Thu 10:49:00 PM -13.1683 -43.6672 56° Northeast  Level Estimated
Thu 10:50:00 PM -13.1047 -43.5712 56° Northeast  Level Estimated
Thu 10:51:00 PM -13.0411 -43.4754 56° Northeast  Level Estimated
Thu 10:52:00 PM -12.9775 -43.3796 56° Northeast  Level Estimated
Thu 10:53:00 PM -12.9138 -43.2838 56° Northeast  Level Estimated
Thu 10:54:00 PM -12.8501 -43.1881 56° Northeast  Level Estimated
Thu 10:55:00 PM -12.7864 -43.0924 56° Northeast  Level Estimated
Thu 10:56:00 PM -12.7226 -42.9967 56° Northeast  Level Estimated
Thu 10:57:00 PM -12.6588 -42.9012 56° Northeast  Level Estimated
Thu 10:58:00 PM -12.5950 -42.8056 56° Northeast  Level Estimated
Thu 10:59:00 PM -12.5311 -42.7102 56° Northeast  Level Estimated
Thu 11:00:00 PM -12.4672 -42.6147 56° Northeast  Level Estimated
Thu 11:01:00 PM -12.4033 -42.5193 56° Northeast  Level Estimated
Thu 11:02:00 PM -12.3393 -42.4240 56° Northeast  Level Estimated
Thu 11:03:00 PM -12.2753 -42.3287 56° Northeast  Level Estimated
Thu 11:04:00 PM -12.2113 -42.2334 55° Northeast  Level Estimated
Thu 11:05:00 PM -12.1473 -42.1382 55° Northeast  Level Estimated
Thu 11:06:00 PM -12.0832 -42.0431 55° Northeast  Level Estimated
Thu 11:07:00 PM -12.0190 -41.9480 55° Northeast  Level Estimated
Thu 11:08:00 PM -11.9549 -41.8529 55° Northeast  Level Estimated
Thu 11:09:00 PM -11.8907 -41.7579 55° Northeast  Level Estimated
Thu 11:10:00 PM -11.8265 -41.6629 55° Northeast  Level Estimated
Thu 11:11:00 PM -11.7622 -41.5680 55° Northeast  Level Estimated
Thu 11:12:00 PM -11.6979 -41.4731 55° Northeast  Level Estimated
Thu 11:13:00 PM -11.6336 -41.3782 55° Northeast  Level Estimated
Thu 11:14:00 PM -11.5692 -41.2834 55° Northeast  Level Estimated
Thu 11:15:00 PM -11.5049 -41.1887 55° Northeast  Level Estimated
Thu 11:16:00 PM -11.4404 -41.0940 55° Northeast  Level Estimated
Thu 11:17:00 PM -11.3760 -40.9993 55° Northeast  Level Estimated
Thu 11:18:00 PM -11.3115 -40.9047 55° Northeast  Level Estimated
Thu 11:19:00 PM -11.2470 -40.8101 55° Northeast  Level Estimated
Thu 11:20:00 PM -11.1825 -40.7155 55° Northeast  Level Estimated
Thu 11:21:00 PM -11.1179 -40.6210 55° Northeast  Level Estimated
Thu 11:22:00 PM -11.0534 -40.5266 55° Northeast  Level Estimated
Thu 11:23:00 PM -10.9887 -40.4322 55° Northeast  Level Estimated
Thu 11:24:00 PM -10.9241 -40.3378 55° Northeast  Level Estimated
Thu 11:25:00 PM -10.8594 -40.2435 55° Northeast  Level Estimated
Thu 11:26:00 PM -10.7947 -40.1492 55° Northeast  Level Estimated
Thu 11:27:00 PM -10.7299 -40.0549 55° Northeast  Level Estimated
Thu 11:28:00 PM -10.6652 -39.9607 55° Northeast  Level Estimated
Thu 11:29:00 PM -10.6004 -39.8665 55° Northeast  Level Estimated
Thu 11:30:00 PM -10.5356 -39.7724 55° Northeast  Level Estimated
Thu 11:31:00 PM -10.4707 -39.6783 55° Northeast  Level Estimated
Thu 11:32:00 PM -10.4059 -39.5843 55° Northeast  Level Estimated
Thu 11:33:00 PM -10.3410 -39.4902 55° Northeast  Level Estimated
Thu 11:34:00 PM -10.2760 -39.3963 55° Northeast  Level Estimated
Thu 11:35:00 PM -10.2111 -39.3023 55° Northeast  Level Estimated
Thu 11:36:00 PM -10.1461 -39.2084 55° Northeast  Level Estimated
Thu 11:37:00 PM -10.0811 -39.1146 55° Northeast  Level Estimated
Thu 11:38:00 PM -10.0160 -39.0207 55° Northeast  Level Estimated
Thu 11:39:00 PM -9.9510 -38.9270 55° Northeast  Level Estimated
Thu 11:40:00 PM -9.8859 -38.8332 55° Northeast  Level Estimated
Thu 11:41:00 PM -9.8208 -38.7395 55° Northeast  Level Estimated
Thu 11:42:00 PM -9.7556 -38.6458 55° Northeast  Level Estimated
Thu 11:43:00 PM -9.6939 -38.5572 55° Northeast  Level Estimated
Thu 11:44:00 PM -9.6322 -38.4686 55° Northeast  Level Estimated
Thu 11:45:00 PM -9.5705 -38.3801 55° Northeast  Level Estimated
Thu 11:46:00 PM -9.5088 -38.2915 55° Northeast  Level Estimated
Thu 11:47:00 PM -9.4470 -38.2030 55° Northeast  Level Estimated
Thu 11:48:00 PM -9.3852 -38.1146 55° Northeast  Level Estimated
Thu 11:49:00 PM -9.3234 -38.0262 55° Northeast  Level Estimated
Thu 11:50:00 PM -9.2616 -37.9378 55° Northeast  Level Estimated
Thu 11:51:00 PM -9.1997 -37.8494 55° Northeast  Level Estimated
Thu 11:52:00 PM -9.1379 -37.7611 55° Northeast  Level Estimated
Thu 11:53:00 PM -9.0760 -37.6728 55° Northeast  Level Estimated
Thu 11:54:00 PM -9.0141 -37.5845 55° Northeast  Level Estimated
Thu 11:55:00 PM -8.9521 -37.4963 55° Northeast  Level Estimated
Thu 11:56:00 PM -8.8902 -37.4080 55° Northeast  Level Estimated
Thu 11:57:00 PM -8.8282 -37.3199 55° Northeast  Level Estimated
Thu 11:58:00 PM -8.7662 -37.2317 55° Northeast  Level Estimated
Thu 11:59:00 PM -8.7042 -37.1436 55° Northeast  Level Estimated
Fri 12:00:18 AM -7.4350 -35.4330 55° Northeast 378 435 10,900  Level FlightAware
Fri 12:00:18 AM -7.4350 -35.4330 55° Northeast 378 435 10,900  Level FlightAware
Fri 12:01:03 AM -7.3770 -35.3890 37° Northeast 378 435 10,900  Level FlightAware
Fri 12:01:03 AM -7.3770 -35.3890 37° Northeast 378 435 10,900 -1,091 Level FlightAware
Fri 12:01:58 AM -7.3220 -35.3490 36° Northeast 269 310 9,900 -1,091 Descending FlightAware
Fri 12:01:58 AM -7.3220 -35.3490 36° Northeast 269 310 9,900 -1,440 Level FlightAware
Fri 12:02:23 AM -7.2960 -35.3310 34° Northeast 269 310 9,300 -1,440 Descending FlightAware
Fri 12:02:23 AM -7.2960 -35.3310 34° Northeast 269 310 9,300 -900 Level FlightAware
Fri 12:02:43 AM -7.2810 -35.3190 38° Northeast 270 311 9,000 -900 Descending FlightAware
Fri 12:02:43 AM -7.2810 -35.3190 38° Northeast 270 311 9,000 -1,600 Level FlightAware
Fri 12:03:13 AM -7.2460 -35.2930 36° Northeast 272 313 8,200 -1,600 Descending FlightAware
Fri 12:03:13 AM -7.2460 -35.2930 36° Northeast 272 313 8,200 -1,200 Level FlightAware
Fri 12:03:18 AM -7.2450 -35.2930 360° North 272 313 8,100 -1,200 Descending FlightAware
Fri 12:03:18 AM -7.2450 -35.2930 360° North 272 313 8,100 -1,543 Level FlightAware
Fri 12:03:53 AM -7.2060 -35.2640 36° Northeast 270 311 7,200 -1,543 Descending FlightAware
Fri 12:03:53 AM -7.2060 -35.2640 36° Northeast 270 311 7,200 -1,400 Level FlightAware
Fri 12:04:23 AM -7.1740 -35.2400 37° Northeast 267 307 6,500 -1,400 Descending FlightAware
Fri 12:04:23 AM -7.1740 -35.2400 37° Northeast 267 307 6,500 -1,200 Level FlightAware
Fri 12:04:48 AM -7.1530 -35.2240 37° Northeast 266 306 6,000 -1,309 Descending FlightAware
Fri 12:05:18 AM -7.1240 -35.2030 36° Northeast 261 300 5,300 -764 Descending FlightAware
Fri 12:05:43 AM -7.1020 -35.1870 36° Northeast 261 300 5,300  Level FlightAware
Fri 12:08:00 AM -7.1484 -34.9507 101° East  Level Estimated
Fri 12:09:00 AM -7.1484 -34.9507 225° Southwest  Level Estimated
Fri 12:10:00 AM -7.1484 -34.9507 225° Southwest  Level Estimated
Fri 12:11:00 AM -7.1484 -34.9507 225° Southwest  Level Estimated
Fri 12:12:00 AM -7.1484 -34.9507 225° Southwest  Level Estimated
Fri 12:13:00 AM -7.1484 -34.9507 225° Southwest  Level Estimated
Fri 12:14:00 AM -7.1484 -34.9507 225° Southwest  Level Estimated
Fri 12:15:00 AM -7.1484 -34.9507 225° Southwest  Level Estimated
Fri 12:16:00 AM -7.1484 -34.9507 225° Southwest  Level Estimated
Fri 12:17:00 AM -7.1484 -34.9507 225° Southwest  Level Estimated
Fri 12:18:00 AM -7.1484 -34.9507 225° Southwest  Level Estimated
Fri 12:19:00 AM -7.1484 -34.9507 225° Southwest  Level Estimated
Fri 12:20:00 AM -7.1484 -34.9507 225° Southwest  Level Estimated
Fri 12:21:00 AM -7.1484 -34.9507 225° Southwest  Level Estimated
Fri 12:22:00 AM -7.1484 -34.9507 225° Southwest  Level Estimated
Fri 12:23:00 AM -7.1484 -34.9507 225° Southwest  Level Estimated
Fri 12:24:00 AM -7.1484 -34.9507 225° Southwest  Level Estimated
Fri 12:25:00 AM -7.1484 -34.9507 225° Southwest  Level Estimated
Fri 12:26:00 AM -7.1484 -34.9507 225° Southwest  Level Estimated
Fri 12:27:00 AM -7.1484 -34.9507 225° Southwest  Level Estimated
Fri 12:28:00 AM -7.1484 -34.9507 225° Southwest  Level Estimated
Fri 12:29:00 AM -7.1484 -34.9507 225° Southwest  Level Estimated
Fri 12:30:00 AM -7.1484 -34.9507 225° Southwest  Level Estimated
Fri 12:31:00 AM -7.1484 -34.9507 225° Southwest  Level Estimated
Fri 12:32:00 AM -7.1484 -34.9507 225° Southwest  Level Estimated
Fri 12:33:00 AM -7.1484 -34.9507 225° Southwest  Level Estimated
Fri 12:34:00 AM -7.1484 -34.9507 225° Southwest  Level Estimated
Fri 12:35:00 AM -7.1484 -34.9507 225° Southwest  Level Estimated
Fri 12:36:00 AM -7.1484 -34.9507 225° Southwest  Level Estimated
Fri 12:37:00 AM -7.1484 -34.9507 225° Southwest  Level Estimated
Fri 12:38:00 AM -7.1484 -34.9507 225° Southwest  Level Estimated
Fri 12:39:00 AM -7.1484 -34.9507 225° Southwest  Level Estimated
Fri 12:40:00 AM -7.1484 -34.9507 225° Southwest  Level Estimated

Login

Don't have an account? Register now (free) for customized features, flight alerts, and more!